createdAt,value
2022-11-27T06:50:31.418Z,101250.94
2022-11-27T06:53:03.983Z,101252.59
2022-11-27T06:55:38.710Z,101249.81
2022-11-27T06:58:10.688Z,101252.77
2022-11-27T07:00:42.990Z,101254.20
2022-11-27T07:03:15.551Z,101260.43
2022-11-27T07:05:47.895Z,101254.97
2022-11-27T07:08:22.591Z,101266.47
2022-11-27T07:10:54.989Z,101264.08
2022-11-27T07:13:27.528Z,101261.52
2022-11-27T07:19:17.673Z,101259.50
2022-11-27T07:21:50.273Z,101260.95
2022-11-27T07:24:23.105Z,101255.16
2022-11-27T07:26:55.591Z,101262.69
2022-11-27T07:29:28.106Z,101267.64
2022-11-27T07:32:02.291Z,101261.52
2022-11-27T07:34:35.180Z,101264.65
2022-11-27T07:37:08.471Z,101254.94
2022-11-27T07:40:01.415Z,101249.12
2022-11-27T07:42:38.021Z,101255.77
2022-11-27T07:44:51.439Z,101252.27
2022-11-27T07:47:26.282Z,101256.22
2022-11-27T07:50:00.760Z,101253.55
2022-11-27T07:52:38.083Z,101248.07
2022-11-27T07:55:07.890Z,101261.52
2022-11-27T07:57:40.278Z,101261.52
2022-11-27T08:00:14.076Z,101262.52
2022-11-27T08:02:46.467Z,101259.41
2022-11-27T08:05:19.500Z,101255.88
2022-11-27T08:07:54.202Z,101260.75
2022-11-27T08:10:28.142Z,101262.69
2022-11-27T08:13:01.116Z,101267.16
2022-11-27T08:15:34.616Z,101256.05
2022-11-27T08:18:06.932Z,101259.55
2022-11-27T08:20:39.233Z,101260.89
2022-11-27T08:23:11.849Z,101262.69
2022-11-27T08:25:46.583Z,101265.30
2022-11-27T08:28:18.963Z,101266.75
2022-11-27T08:31:00.950Z,101265.02
2022-11-27T08:33:33.742Z,101263.14
2022-11-27T08:36:10.582Z,101270.60
2022-11-27T08:38:42.547Z,101263.97
2022-11-27T08:41:14.947Z,101269.16
2022-11-27T08:43:47.225Z,101272.34
2022-11-27T08:46:19.755Z,101268.38
2022-11-27T08:48:52.243Z,101259.55
2022-11-27T08:51:25.840Z,101264.53
2022-11-27T08:53:58.402Z,101265.88
2022-11-27T08:56:30.871Z,101259.61
2022-11-27T08:59:03.815Z,101259.61
2022-11-27T09:01:36.430Z,101258.27
2022-11-27T09:04:08.956Z,101258.73
2022-11-27T09:06:43.294Z,101256.50
2022-11-27T09:09:18.187Z,101256.16
2022-11-27T09:11:50.127Z,101253.31
2022-11-27T09:14:22.547Z,101253.20
2022-11-27T09:16:55.465Z,101259.50
2022-11-27T09:19:29.817Z,101256.76
2022-11-27T09:22:02.431Z,101255.94
2022-11-27T09:24:35.055Z,101253.42
2022-11-27T09:27:07.443Z,101255.98
2022-11-27T09:29:39.852Z,101264.42
2022-11-27T09:32:12.243Z,101261.34
2022-11-27T09:34:44.836Z,101257.33
2022-11-27T09:37:20.190Z,101258.55
2022-11-27T09:39:52.729Z,101262.02
2022-11-27T09:42:44.413Z,101250.86
2022-11-27T09:45:17.674Z,101257.55
2022-11-27T09:48:02.520Z,101258.09
2022-11-27T09:50:42.064Z,101255.88
2022-11-27T09:53:28.521Z,101250.18
2022-11-27T09:56:03.153Z,101250.30
2022-11-27T09:58:44.519Z,101252.48
2022-11-27T10:01:19.402Z,101251.58
2022-11-27T10:03:51.865Z,101258.55
2022-11-27T10:06:43.183Z,101254.54
2022-11-27T10:09:28.280Z,101248.36
2022-11-27T10:12:32.114Z,101246.11
2022-11-27T10:15:21.843Z,101251.92
2022-11-27T10:18:18.895Z,101247.50
2022-11-27T10:20:56.734Z,101249.30
2022-11-27T10:24:13.017Z,101249.81
2022-11-27T10:26:51.719Z,101245.39
2022-11-27T10:29:50.177Z,101238.42
2022-11-27T10:32:54.194Z,101239.48
2022-11-27T10:35:05.901Z,101237.70
2022-11-27T10:37:43.393Z,101239.48
2022-11-27T10:40:21.296Z,101234.86
2022-11-27T10:43:04.913Z,101228.11
2022-11-27T10:45:59.038Z,101232.41
2022-11-27T10:48:31.758Z,101235.57
2022-11-27T10:51:07.304Z,101224.38
2022-11-27T10:53:39.622Z,101224.80
2022-11-27T10:56:42.355Z,101219.56
2022-11-27T10:59:34.416Z,101216.06
2022-11-27T11:02:05.967Z,101211.70
2022-11-27T11:04:39.199Z,101215.89
2022-11-27T11:07:28.043Z,101214.61
2022-11-27T11:10:00.766Z,101210.71
2022-11-27T11:12:33.752Z,101215.30
2022-11-27T11:15:11.176Z,101209.71
2022-11-27T11:17:43.664Z,101207.41
2022-11-27T11:20:26.181Z,101214.95
2022-11-27T11:22:58.618Z,101207.87
2022-11-27T11:25:31.104Z,101213.22
2022-11-27T11:28:03.572Z,101203.40
2022-11-27T11:30:38.203Z,101206.92
2022-11-27T11:33:13.062Z,101203.25
2022-11-27T11:35:48.754Z,101207.27
2022-11-27T11:38:24.333Z,101198.84
2022-11-27T11:41:04.567Z,101195.87
2022-11-27T11:43:38.746Z,101196.39
2022-11-27T11:46:23.891Z,101203.91
2022-11-27T11:49:02.164Z,101204.73
2022-11-27T11:52:03.551Z,101209.03
2022-11-27T11:55:01.409Z,101208.61
2022-11-27T11:57:44.435Z,101200.12
2022-11-27T12:00:19.097Z,101197.10
2022-11-27T12:03:30.988Z,101200.66
2022-11-27T12:06:35.547Z,101201.52
2022-11-27T12:09:16.326Z,101203.25
2022-11-27T12:11:59.396Z,101195.22
2022-11-27T12:15:05.327Z,101207.70
2022-11-27T12:18:03.689Z,101214.78
2022-11-27T12:20:49.987Z,101217.41
2022-11-27T12:23:54.652Z,101221.08
2022-11-27T12:26:32.002Z,101220.14
2022-11-27T12:29:36.691Z,101215.30
2022-11-27T12:32:20.470Z,101213.56
2022-11-27T12:35:27.726Z,101214.84
2022-11-27T12:38:25.978Z,101219.40
2022-11-27T12:41:43.883Z,101223.16
2022-11-27T12:44:30.517Z,101219.25
2022-11-27T12:47:24.491Z,101217.12
2022-11-27T12:50:04.744Z,101214.84
2022-11-27T12:52:44.628Z,101216.58
2022-11-27T12:55:25.563Z,101207.64
2022-11-27T12:58:08.155Z,101209.83
2022-11-27T13:00:42.482Z,101212.77
2022-11-27T13:03:43.428Z,101212.16
2022-11-27T13:06:20.263Z,101216.52
2022-11-27T13:09:15.326Z,101213.84
2022-11-27T13:11:48.043Z,101212.05
2022-11-27T13:14:25.181Z,101212.39
2022-11-27T13:17:05.208Z,101208.38
2022-11-27T13:19:46.253Z,101213.73
2022-11-27T13:22:27.269Z,101211.16
2022-11-27T13:25:04.120Z,101213.45
2022-11-27T13:27:37.623Z,101220.53
2022-11-27T13:30:12.794Z,101222.81
2022-11-27T13:32:54.982Z,101219.31
2022-11-27T13:35:42.198Z,101217.58
2022-11-27T13:38:23.995Z,101218.91
2022-11-27T13:40:57.736Z,101215.84
2022-11-27T13:43:46.873Z,101213.67
2022-11-27T13:46:31.932Z,101216.41
2022-11-27T13:49:06.580Z,101220.02
2022-11-27T13:51:40.364Z,101212.05
2022-11-27T13:54:22.245Z,101213.84
2022-11-27T13:56:54.084Z,101218.34
2022-11-27T13:59:26.947Z,101219.73
2022-11-27T14:02:05.340Z,101229.95
2022-11-27T14:04:39.804Z,101225.14
2022-11-27T14:07:16.584Z,101227.94
2022-11-27T14:09:56.320Z,101228.22
2022-11-27T14:12:33.447Z,101235.80
2022-11-27T14:15:18.682Z,101238.47
2022-11-27T14:17:52.969Z,101238.81
2022-11-27T14:20:31.379Z,101243.23
2022-11-27T14:23:12.916Z,101241.03
2022-11-27T14:25:38.307Z,101241.48
2022-11-27T14:28:25.643Z,101237.19
2022-11-27T14:31:01.060Z,101241.31
2022-11-27T14:33:59.560Z,101234.34
2022-11-27T14:36:35.986Z,101239.63
2022-11-27T14:39:09.378Z,101238.23
2022-11-27T14:41:41.959Z,101233.73
2022-11-27T14:44:19.427Z,101234.17
2022-11-27T14:46:53.307Z,101240.72
2022-11-27T14:49:28.659Z,101239.75
2022-11-27T14:52:08.335Z,101237.59
2022-11-27T14:54:41.382Z,101239.33
2022-11-27T14:57:28.300Z,101235.45
2022-11-27T15:00:20.553Z,101247.12
2022-11-27T15:02:53.246Z,101246.27
2022-11-27T15:05:28.607Z,101254.34
2022-11-27T15:08:02.181Z,101250.50
2022-11-27T15:10:38.373Z,101248.22
2022-11-27T15:13:24.154Z,101244.16
2022-11-27T15:16:04.479Z,101241.93
2022-11-27T15:18:38.933Z,101242.77
2022-11-27T15:21:16.691Z,101242.20
2022-11-27T15:23:51.286Z,101242.65
2022-11-27T15:26:52.256Z,101239.09
2022-11-27T15:29:38.490Z,101238.64
2022-11-27T15:32:23.179Z,101240.32
2022-11-27T15:34:54.598Z,101239.33
2022-11-27T15:37:34.675Z,101235.84
2022-11-27T15:40:30.554Z,101240.61
2022-11-27T15:43:04.629Z,101234.85
2022-11-27T15:45:41.412Z,101240.27
2022-11-27T15:48:18.209Z,101235.02
2022-11-27T15:50:51.990Z,101234.11
2022-11-27T15:53:25.906Z,101237.81
2022-11-27T15:56:01.953Z,101232.45
2022-11-27T15:58:34.507Z,101236.13
2022-11-27T16:01:08.674Z,101240.91
2022-11-27T16:03:41.515Z,101239.58
2022-11-27T16:06:14.282Z,101244.05
2022-11-27T16:08:47.055Z,101240.91
2022-11-27T16:11:20.238Z,101243.16
2022-11-27T16:13:53.069Z,101235.19
